sensor_id;sensor_type;location;lat;lon;timestamp;pressure;altitude;pressure_sealevel;temperature
69552;BMP280;63774;45.292;11.784;2023-05-18T00:02:03;102028.36;;;21.45
69552;BMP280;63774;45.292;11.784;2023-05-18T00:04:29;102025.88;;;21.44
69552;BMP280;63774;45.292;11.784;2023-05-18T00:06:57;102024.42;;;21.43
69552;BMP280;63774;45.292;11.784;2023-05-18T00:09:28;102021.75;;;21.43
69552;BMP280;63774;45.292;11.784;2023-05-18T00:11:55;102018.42;;;21.43
69552;BMP280;63774;45.292;11.784;2023-05-18T00:14:21;102018.23;;;21.42
69552;BMP280;63774;45.292;11.784;2023-05-18T00:16:47;102019.48;;;21.41
69552;BMP280;63774;45.292;11.784;2023-05-18T00:19:13;102018.11;;;21.42
69552;BMP280;63774;45.292;11.784;2023-05-18T00:21:43;102020.82;;;21.42
69552;BMP280;63774;45.292;11.784;2023-05-18T00:24:13;102026.34;;;21.42
69552;BMP280;63774;45.292;11.784;2023-05-18T00:26:40;102027.46;;;21.41
69552;BMP280;63774;45.292;11.784;2023-05-18T00:29:07;102023.64;;;21.39
69552;BMP280;63774;45.292;11.784;2023-05-18T00:31:33;102022.35;;;21.40
69552;BMP280;63774;45.292;11.784;2023-05-18T00:34:11;102020.77;;;21.38
69552;BMP280;63774;45.292;11.784;2023-05-18T00:36:38;102021.38;;;21.39
69552;BMP280;63774;45.292;11.784;2023-05-18T00:39:05;102020.23;;;21.38
69552;BMP280;63774;45.292;11.784;2023-05-18T00:41:31;102021.48;;;21.38
69552;BMP280;63774;45.292;11.784;2023-05-18T00:43:57;102022.10;;;21.38
69552;BMP280;63774;45.292;11.784;2023-05-18T00:46:24;102019.40;;;21.38
69552;BMP280;63774;45.292;11.784;2023-05-18T00:48:51;102019.16;;;21.39
69552;BMP280;63774;45.292;11.784;2023-05-18T00:51:20;102016.39;;;21.37
69552;BMP280;63774;45.292;11.784;2023-05-18T00:53:49;102015.73;;;21.38
69552;BMP280;63774;45.292;11.784;2023-05-18T00:56:15;102013.70;;;21.39
69552;BMP280;63774;45.292;11.784;2023-05-18T00:58:41;102015.25;;;21.39
69552;BMP280;63774;45.292;11.784;2023-05-18T01:01:07;102013.48;;;21.39
69552;BMP280;63774;45.292;11.784;2023-05-18T01:03:36;102009.19;;;21.37
69552;BMP280;63774;45.292;11.784;2023-05-18T01:06:06;102014.64;;;21.38
69552;BMP280;63774;45.292;11.784;2023-05-18T01:08:35;102014.98;;;21.36
69552;BMP280;63774;45.292;11.784;2023-05-18T01:13:37;102011.80;;;21.37
69552;BMP280;63774;45.292;11.784;2023-05-18T01:16:09;102009.72;;;21.37
69552;BMP280;63774;45.292;11.784;2023-05-18T01:18:40;102013.97;;;21.37
69552;BMP280;63774;45.292;11.784;2023-05-18T01:21:18;102014.23;;;21.36
69552;BMP280;63774;45.292;11.784;2023-05-18T01:26:55;102016.52;;;21.34
69552;BMP280;63774;45.292;11.784;2023-05-18T01:29:24;102019.25;;;21.35
69552;BMP280;63774;45.292;11.784;2023-05-18T01:31:50;102020.03;;;21.35
69552;BMP280;63774;45.292;11.784;2023-05-18T01:34:15;102022.39;;;21.36
69552;BMP280;63774;45.292;11.784;2023-05-18T01:36:40;102022.46;;;21.35
69552;BMP280;63774;45.292;11.784;2023-05-18T01:39:07;102022.98;;;21.36
69552;BMP280;63774;45.292;11.784;2023-05-18T01:41:36;102022.91;;;21.35
69552;BMP280;63774;45.292;11.784;2023-05-18T01:51:48;102023.06;;;21.33
69552;BMP280;63774;45.292;11.784;2023-05-18T01:54:16;102024.98;;;21.34
69552;BMP280;63774;45.292;11.784;2023-05-18T01:56:43;102026.55;;;21.33
69552;BMP280;63774;45.292;11.784;2023-05-18T01:59:10;102029.66;;;21.32
69552;BMP280;63774;45.292;11.784;2023-05-18T02:01:36;102029.51;;;21.33
69552;BMP280;63774;45.292;11.784;2023-05-18T02:04:06;102030.41;;;21.34
69552;BMP280;63774;45.292;11.784;2023-05-18T02:06:32;102027.86;;;21.33
69552;BMP280;63774;45.292;11.784;2023-05-18T02:08:57;102028.22;;;21.33
69552;BMP280;63774;45.292;11.784;2023-05-18T02:11:23;102027.95;;;21.32
69552;BMP280;63774;45.292;11.784;2023-05-18T02:13:48;102028.94;;;21.33
69552;BMP280;63774;45.292;11.784;2023-05-18T02:16:14;102030.10;;;21.32
69552;BMP280;63774;45.292;11.784;2023-05-18T02:18:39;102027.50;;;21.32
69552;BMP280;63774;45.292;11.784;2023-05-18T02:21:05;102027.66;;;21.33
69552;BMP280;63774;45.292;11.784;2023-05-18T02:23:30;102026.80;;;21.33
69552;BMP280;63774;45.292;11.784;2023-05-18T02:25:56;102025.22;;;21.31
69552;BMP280;63774;45.292;11.784;2023-05-18T02:28:22;102023.91;;;21.31
69552;BMP280;63774;45.292;11.784;2023-05-18T02:30:47;102020.94;;;21.30
69552;BMP280;63774;45.292;11.784;2023-05-18T02:33:13;102021.84;;;21.29
69552;BMP280;63774;45.292;11.784;2023-05-18T02:35:38;102020.03;;;21.29
69552;BMP280;63774;45.292;11.784;2023-05-18T02:38:05;102017.58;;;21.28
69552;BMP280;63774;45.292;11.784;2023-05-18T02:40:31;102014.81;;;21.29
69552;BMP280;63774;45.292;11.784;2023-05-18T02:42:56;102017.53;;;21.29
69552;BMP280;63774;45.292;11.784;2023-05-18T02:45:22;102018.40;;;21.31
69552;BMP280;63774;45.292;11.784;2023-05-18T02:47:47;102014.07;;;21.30
69552;BMP280;63774;45.292;11.784;2023-05-18T02:50:13;102012.40;;;21.29
69552;BMP280;63774;45.292;11.784;2023-05-18T02:52:38;102014.25;;;21.29
69552;BMP280;63774;45.292;11.784;2023-05-18T02:55:05;102017.15;;;21.29
69552;BMP280;63774;45.292;11.784;2023-05-18T02:57:30;102016.64;;;21.30
69552;BMP280;63774;45.292;11.784;2023-05-18T02:59:57;102014.26;;;21.27
69552;BMP280;63774;45.292;11.784;2023-05-18T03:02:23;102012.41;;;21.28
69552;BMP280;63774;45.292;11.784;2023-05-18T03:04:49;102010.67;;;21.27
69552;BMP280;63774;45.292;11.784;2023-05-18T03:07:24;102012.34;;;21.27
69552;BMP280;63774;45.292;11.784;2023-05-18T03:09:51;102007.52;;;21.27
69552;BMP280;63774;45.292;11.784;2023-05-18T03:12:17;102007.86;;;21.28
69552;BMP280;63774;45.292;11.784;2023-05-18T03:14:42;102009.79;;;21.28
69552;BMP280;63774;45.292;11.784;2023-05-18T03:17:08;102010.33;;;21.27
69552;BMP280;63774;45.292;11.784;2023-05-18T03:19:33;102008.25;;;21.26
69552;BMP280;63774;45.292;11.784;2023-05-18T03:21:59;102007.95;;;21.27
69552;BMP280;63774;45.292;11.784;2023-05-18T03:24:25;102009.05;;;21.26
69552;BMP280;63774;45.292;11.784;2023-05-18T03:26:54;102015.45;;;21.26
69552;BMP280;63774;45.292;11.784;2023-05-18T03:29:22;102012.61;;;21.25
69552;BMP280;63774;45.292;11.784;2023-05-18T03:31:47;102012.21;;;21.25
69552;BMP280;63774;45.292;11.784;2023-05-18T03:34:13;102016.92;;;21.25
69552;BMP280;63774;45.292;11.784;2023-05-18T03:36:39;102018.08;;;21.25
69552;BMP280;63774;45.292;11.784;2023-05-18T03:39:06;102020.46;;;21.25
69552;BMP280;63774;45.292;11.784;2023-05-18T03:41:32;102019.91;;;21.26
69552;BMP280;63774;45.292;11.784;2023-05-18T03:43:58;102024.24;;;21.25
69552;BMP280;63774;45.292;11.784;2023-05-18T03:46:24;102026.93;;;21.25
69552;BMP280;63774;45.292;11.784;2023-05-18T03:48:50;102027.34;;;21.24
69552;BMP280;63774;45.292;11.784;2023-05-18T03:51:18;102027.91;;;21.24
69552;BMP280;63774;45.292;11.784;2023-05-18T03:53:43;102024.19;;;21.24
69552;BMP280;63774;45.292;11.784;2023-05-18T03:56:09;102024.86;;;21.23
69552;BMP280;63774;45.292;11.784;2023-05-18T03:58:34;102026.17;;;21.24
69552;BMP280;63774;45.292;11.784;2023-05-18T04:01:01;102025.97;;;21.23
69552;BMP280;63774;45.292;11.784;2023-05-18T04:03:27;102026.10;;;21.23
69552;BMP280;63774;45.292;11.784;2023-05-18T04:05:52;102031.04;;;21.24
69552;BMP280;63774;45.292;11.784;2023-05-18T04:08:19;102032.11;;;21.24
69552;BMP280;63774;45.292;11.784;2023-05-18T04:10:45;102037.01;;;21.23
69552;BMP280;63774;45.292;11.784;2023-05-18T04:13:11;102039.66;;;21.23
69552;BMP280;63774;45.292;11.784;2023-05-18T04:15:36;102040.94;;;21.25
69552;BMP280;63774;45.292;11.784;2023-05-18T04:18:02;102041.17;;;21.24
69552;BMP280;63774;45.292;11.784;2023-05-18T04:20:28;102041.42;;;21.24
69552;BMP280;63774;45.292;11.784;2023-05-18T04:22:54;102041.49;;;21.24
69552;BMP280;63774;45.292;11.784;2023-05-18T04:25:21;102039.16;;;21.24
69552;BMP280;63774;45.292;11.784;2023-05-18T04:27:52;102042.02;;;21.25
69552;BMP280;63774;45.292;11.784;2023-05-18T04:30:18;102043.00;;;21.24
69552;BMP280;63774;45.292;11.784;2023-05-18T04:32:46;102043.98;;;21.24
69552;BMP280;63774;45.292;11.784;2023-05-18T04:35:12;102044.64;;;21.22
69552;BMP280;63774;45.292;11.784;2023-05-18T04:37:37;102046.19;;;21.23
69552;BMP280;63774;45.292;11.784;2023-05-18T04:40:11;102051.80;;;21.24
69552;BMP280;63774;45.292;11.784;2023-05-18T04:42:42;102054.40;;;21.24
69552;BMP280;63774;45.292;11.784;2023-05-18T04:45:19;102057.34;;;21.24
69552;BMP280;63774;45.292;11.784;2023-05-18T04:47:47;102058.21;;;21.24
69552;BMP280;63774;45.292;11.784;2023-05-18T04:50:18;102060.41;;;21.24
69552;BMP280;63774;45.292;11.784;2023-05-18T04:52:45;102062.33;;;21.24
69552;BMP280;63774;45.292;11.784;2023-05-18T04:55:19;102064.94;;;21.24
69552;BMP280;63774;45.292;11.784;2023-05-18T04:57:50;102066.42;;;21.24
69552;BMP280;63774;45.292;11.784;2023-05-18T05:00:19;102070.42;;;21.25
69552;BMP280;63774;45.292;11.784;2023-05-18T05:02:45;102075.06;;;21.25
69552;BMP280;63774;45.292;11.784;2023-05-18T05:05:10;102076.95;;;21.23
69552;BMP280;63774;45.292;11.784;2023-05-18T05:07:36;102076.66;;;21.24
69552;BMP280;63774;45.292;11.784;2023-05-18T05:10:02;102075.14;;;21.24
69552;BMP280;63774;45.292;11.784;2023-05-18T05:12:28;102075.65;;;21.24
69552;BMP280;63774;45.292;11.784;2023-05-18T05:14:53;102077.75;;;21.24
69552;BMP280;63774;45.292;11.784;2023-05-18T05:17:19;102078.43;;;21.25
69552;BMP280;63774;45.292;11.784;2023-05-18T05:19:44;102079.00;;;21.24
69552;BMP280;63774;45.292;11.784;2023-05-18T05:22:10;102079.98;;;21.23
69552;BMP280;63774;45.292;11.784;2023-05-18T05:24:35;102078.95;;;21.22
69552;BMP280;63774;45.292;11.784;2023-05-18T05:27:01;102081.68;;;21.23
69552;BMP280;63774;45.292;11.784;2023-05-18T05:29:26;102084.91;;;21.23
69552;BMP280;63774;45.292;11.784;2023-05-18T05:31:52;102089.23;;;21.23
69552;BMP280;63774;45.292;11.784;2023-05-18T05:34:17;102092.00;;;21.22
69552;BMP280;63774;45.292;11.784;2023-05-18T05:36:43;102092.69;;;21.23
69552;BMP280;63774;45.292;11.784;2023-05-18T05:39:08;102095.80;;;21.23
69552;BMP280;63774;45.292;11.784;2023-05-18T05:41:34;102097.16;;;21.23
69552;BMP280;63774;45.292;11.784;2023-05-18T05:43:59;102096.63;;;21.21
69552;BMP280;63774;45.292;11.784;2023-05-18T05:46:25;102098.58;;;21.23
69552;BMP280;63774;45.292;11.784;2023-05-18T05:48:51;102097.52;;;21.22
69552;BMP280;63774;45.292;11.784;2023-05-18T05:51:16;102097.85;;;21.22
69552;BMP280;63774;45.292;11.784;2023-05-18T05:53:42;102098.58;;;21.21
69552;BMP280;63774;45.292;11.784;2023-05-18T05:56:08;102098.74;;;21.20
69552;BMP280;63774;45.292;11.784;2023-05-18T05:58:33;102102.29;;;21.21
69552;BMP280;63774;45.292;11.784;2023-05-18T06:00:59;102103.63;;;21.21
69552;BMP280;63774;45.292;11.784;2023-05-18T06:03:25;102105.55;;;21.22
69552;BMP280;63774;45.292;11.784;2023-05-18T06:05:50;102105.88;;;21.22
69552;BMP280;63774;45.292;11.784;2023-05-18T06:08:16;102107.91;;;21.21
69552;BMP280;63774;45.292;11.784;2023-05-18T06:10:42;102112.86;;;21.21
69552;BMP280;63774;45.292;11.784;2023-05-18T06:13:07;102114.63;;;21.21
69552;BMP280;63774;45.292;11.784;2023-05-18T06:15:33;102116.28;;;21.22
69552;BMP280;63774;45.292;11.784;2023-05-18T06:17:58;102117.98;;;21.22
69552;BMP280;63774;45.292;11.784;2023-05-18T06:20:24;102118.85;;;21.22
69552;BMP280;63774;45.292;11.784;2023-05-18T06:22:50;102121.41;;;21.22
69552;BMP280;63774;45.292;11.784;2023-05-18T06:25:16;102124.86;;;21.23
69552;BMP280;63774;45.292;11.784;2023-05-18T06:27:42;102127.58;;;21.23
69552;BMP280;63774;45.292;11.784;2023-05-18T06:30:08;102127.34;;;21.23
69552;BMP280;63774;45.292;11.784;2023-05-18T06:32:35;102126.91;;;21.23
69552;BMP280;63774;45.292;11.784;2023-05-18T06:35:01;102125.23;;;21.24
69552;BMP280;63774;45.292;11.784;2023-05-18T06:37:28;102124.69;;;21.25
69552;BMP280;63774;45.292;11.784;2023-05-18T06:39:54;102121.61;;;21.26
69552;BMP280;63774;45.292;11.784;2023-05-18T06:42:19;102124.61;;;21.28
69552;BMP280;63774;45.292;11.784;2023-05-18T06:44:45;102125.65;;;21.27
69552;BMP280;63774;45.292;11.784;2023-05-18T06:47:10;102127.52;;;21.28
69552;BMP280;63774;45.292;11.784;2023-05-18T06:49:36;102126.45;;;21.27
69552;BMP280;63774;45.292;11.784;2023-05-18T06:52:02;102128.25;;;21.27
69552;BMP280;63774;45.292;11.784;2023-05-18T06:54:27;102134.04;;;21.30
69552;BMP280;63774;45.292;11.784;2023-05-18T06:56:54;102134.50;;;21.28
69552;BMP280;63774;45.292;11.784;2023-05-18T06:59:19;102136.31;;;21.28
69552;BMP280;63774;45.292;11.784;2023-05-18T07:01:46;102139.01;;;21.29
69552;BMP280;63774;45.292;11.784;2023-05-18T07:04:11;102138.36;;;21.30
69552;BMP280;63774;45.292;11.784;2023-05-18T07:06:37;102139.02;;;21.31
69552;BMP280;63774;45.292;11.784;2023-05-18T07:09:03;102132.23;;;21.31
69552;BMP280;63774;45.292;11.784;2023-05-18T07:11:29;102134.48;;;21.32
69552;BMP280;63774;45.292;11.784;2023-05-18T07:13:54;102136.17;;;21.34
69552;BMP280;63774;45.292;11.784;2023-05-18T07:16:19;102137.30;;;21.35
69552;BMP280;63774;45.292;11.784;2023-05-18T07:18:45;102136.69;;;21.35
69552;BMP280;63774;45.292;11.784;2023-05-18T07:21:11;102132.85;;;21.36
69552;BMP280;63774;45.292;11.784;2023-05-18T07:23:36;102135.65;;;21.36
69552;BMP280;63774;45.292;11.784;2023-05-18T07:26:01;102131.75;;;21.37
69552;BMP280;63774;45.292;11.784;2023-05-18T07:28:27;102132.02;;;21.37
69552;BMP280;63774;45.292;11.784;2023-05-18T07:30:52;102132.55;;;21.37
69552;BMP280;63774;45.292;11.784;2023-05-18T07:33:18;102129.63;;;21.37
69552;BMP280;63774;45.292;11.784;2023-05-18T07:35:43;102128.92;;;21.38
69552;BMP280;63774;45.292;11.784;2023-05-18T07:38:09;102125.09;;;21.39
69552;BMP280;63774;45.292;11.784;2023-05-18T07:40:35;102127.91;;;21.39
69552;BMP280;63774;45.292;11.784;2023-05-18T07:43:00;102125.98;;;21.39
69552;BMP280;63774;45.292;11.784;2023-05-18T07:45:25;102125.15;;;21.39
69552;BMP280;63774;45.292;11.784;2023-05-18T07:47:51;102124.33;;;21.39
69552;BMP280;63774;45.292;11.784;2023-05-18T07:50:17;102124.27;;;21.40
69552;BMP280;63774;45.292;11.784;2023-05-18T07:52:42;102123.05;;;21.40
69552;BMP280;63774;45.292;11.784;2023-05-18T07:55:08;102124.23;;;21.41
69552;BMP280;63774;45.292;11.784;2023-05-18T07:57:33;102126.66;;;21.41
69552;BMP280;63774;45.292;11.784;2023-05-18T08:00:00;102126.45;;;21.42
69552;BMP280;63774;45.292;11.784;2023-05-18T08:02:25;102126.90;;;21.42
69552;BMP280;63774;45.292;11.784;2023-05-18T08:04:51;102125.72;;;21.44
69552;BMP280;63774;45.292;11.784;2023-05-18T08:07:17;102125.61;;;21.43
69552;BMP280;63774;45.292;11.784;2023-05-18T08:09:42;102123.95;;;21.43
69552;BMP280;63774;45.292;11.784;2023-05-18T08:12:08;102124.16;;;21.42
69552;BMP280;63774;45.292;11.784;2023-05-18T08:14:34;102124.45;;;21.43
69552;BMP280;63774;45.292;11.784;2023-05-18T08:17:01;102125.75;;;21.41
69552;BMP280;63774;45.292;11.784;2023-05-18T08:19:26;102125.63;;;21.40
69552;BMP280;63774;45.292;11.784;2023-05-18T08:21:52;102126.98;;;21.41
69552;BMP280;63774;45.292;11.784;2023-05-18T08:24:17;102125.42;;;21.43
69552;BMP280;63774;45.292;11.784;2023-05-18T08:26:43;102120.00;;;21.43
69552;BMP280;63774;45.292;11.784;2023-05-18T08:29:08;102120.00;;;21.42
69552;BMP280;63774;45.292;11.784;2023-05-18T08:31:38;102122.54;;;21.42
69552;BMP280;63774;45.292;11.784;2023-05-18T08:34:05;102121.83;;;21.42
69552;BMP280;63774;45.292;11.784;2023-05-18T08:36:35;102121.61;;;21.40
69552;BMP280;63774;45.292;11.784;2023-05-18T08:39:01;102121.27;;;21.40
69552;BMP280;63774;45.292;11.784;2023-05-18T08:44:16;102127.80;;;21.41
69552;BMP280;63774;45.292;11.784;2023-05-18T08:46:45;102127.27;;;21.39
69552;BMP280;63774;45.292;11.784;2023-05-18T08:49:17;102127.17;;;21.38
69552;BMP280;63774;45.292;11.784;2023-05-18T08:52:03;102128.36;;;21.39
69552;BMP280;63774;45.292;11.784;2023-05-18T08:54:29;102128.62;;;21.39
69552;BMP280;63774;45.292;11.784;2023-05-18T08:56:56;102124.92;;;21.38
69552;BMP280;63774;45.292;11.784;2023-05-18T08:59:29;102129.52;;;21.38
69552;BMP280;63774;45.292;11.784;2023-05-18T09:01:55;102130.17;;;21.40
69552;BMP280;63774;45.292;11.784;2023-05-18T09:04:21;102128.23;;;21.40
69552;BMP280;63774;45.292;11.784;2023-05-18T09:06:47;102127.38;;;21.40
69552;BMP280;63774;45.292;11.784;2023-05-18T09:09:14;102127.10;;;21.41
69552;BMP280;63774;45.292;11.784;2023-05-18T09:11:40;102127.01;;;21.42
69552;BMP280;63774;45.292;11.784;2023-05-18T09:14:06;102126.31;;;21.43
69552;BMP280;63774;45.292;11.784;2023-05-18T09:16:32;102129.98;;;21.43
69552;BMP280;63774;45.292;11.784;2023-05-18T09:18:58;102131.30;;;21.43
69552;BMP280;63774;45.292;11.784;2023-05-18T09:21:24;102128.89;;;21.43
69552;BMP280;63774;45.292;11.784;2023-05-18T09:23:50;102125.77;;;21.43
69552;BMP280;63774;45.292;11.784;2023-05-18T09:26:18;102126.63;;;21.42
69552;BMP280;63774;45.292;11.784;2023-05-18T09:28:44;102132.20;;;21.41
69552;BMP280;63774;45.292;11.784;2023-05-18T09:31:16;102131.77;;;21.42
69552;BMP280;63774;45.292;11.784;2023-05-18T09:33:43;102129.52;;;21.43
69552;BMP280;63774;45.292;11.784;2023-05-18T09:36:10;102131.45;;;21.44
69552;BMP280;63774;45.292;11.784;2023-05-18T09:38:41;102134.38;;;21.45
69552;BMP280;63774;45.292;11.784;2023-05-18T09:41:11;102135.65;;;21.45
69552;BMP280;63774;45.292;11.784;2023-05-18T09:43:37;102136.70;;;21.46
69552;BMP280;63774;45.292;11.784;2023-05-18T09:46:07;102135.55;;;21.47
69552;BMP280;63774;45.292;11.784;2023-05-18T09:48:40;102135.88;;;21.45
69552;BMP280;63774;45.292;11.784;2023-05-18T09:51:06;102138.71;;;21.46
69552;BMP280;63774;45.292;11.784;2023-05-18T09:53:34;102141.09;;;21.45
69552;BMP280;63774;45.292;11.784;2023-05-18T09:56:05;102140.89;;;21.45
69552;BMP280;63774;45.292;11.784;2023-05-18T09:58:34;102145.08;;;21.44
69552;BMP280;63774;45.292;11.784;2023-05-18T10:01:01;102149.77;;;21.43
69552;BMP280;63774;45.292;11.784;2023-05-18T10:03:36;102152.25;;;21.42
69552;BMP280;63774;45.292;11.784;2023-05-18T10:06:04;102152.62;;;21.43
69552;BMP280;63774;45.292;11.784;2023-05-18T10:08:31;102151.44;;;21.43
69552;BMP280;63774;45.292;11.784;2023-05-18T10:10:56;102147.64;;;21.43
69552;BMP280;63774;45.292;11.784;2023-05-18T10:13:25;102146.23;;;21.44
69552;BMP280;63774;45.292;11.784;2023-05-18T10:15:53;102140.10;;;21.43
69552;BMP280;63774;45.292;11.784;2023-05-18T10:18:22;102139.38;;;21.43
69552;BMP280;63774;45.292;11.784;2023-05-18T10:20:49;102135.52;;;21.44
69552;BMP280;63774;45.292;11.784;2023-05-18T10:23:17;102140.08;;;21.45
69552;BMP280;63774;45.292;11.784;2023-05-18T10:25:45;102138.92;;;21.45
69552;BMP280;63774;45.292;11.784;2023-05-18T10:28:11;102139.45;;;21.45
69552;BMP280;63774;45.292;11.784;2023-05-18T10:30:39;102144.55;;;21.45
69552;BMP280;63774;45.292;11.784;2023-05-18T10:33:06;102145.31;;;21.44
69552;BMP280;63774;45.292;11.784;2023-05-18T10:35:34;102143.41;;;21.44
69552;BMP280;63774;45.292;11.784;2023-05-18T10:38:00;102148.16;;;21.44
69552;BMP280;63774;45.292;11.784;2023-05-18T10:40:27;102151.27;;;21.45
69552;BMP280;63774;45.292;11.784;2023-05-18T10:42:56;102145.10;;;21.44
69552;BMP280;63774;45.292;11.784;2023-05-18T10:45:22;102142.80;;;21.44
69552;BMP280;63774;45.292;11.784;2023-05-18T10:47:49;102143.86;;;21.44
69552;BMP280;63774;45.292;11.784;2023-05-18T10:50:20;102137.28;;;21.44
69552;BMP280;63774;45.292;11.784;2023-05-18T10:52:47;102134.05;;;21.44
69552;BMP280;63774;45.292;11.784;2023-05-18T10:55:13;102133.83;;;21.45
69552;BMP280;63774;45.292;11.784;2023-05-18T10:57:46;102133.55;;;21.45
69552;BMP280;63774;45.292;11.784;2023-05-18T11:00:13;102132.60;;;21.46
69552;BMP280;63774;45.292;11.784;2023-05-18T11:02:39;102131.26;;;21.46
69552;BMP280;63774;45.292;11.784;2023-05-18T11:05:07;102129.14;;;21.46
69552;BMP280;63774;45.292;11.784;2023-05-18T11:07:33;102129.90;;;21.47
69552;BMP280;63774;45.292;11.784;2023-05-18T11:10:09;102128.98;;;21.47
69552;BMP280;63774;45.292;11.784;2023-05-18T11:12:39;102131.45;;;21.49
69552;BMP280;63774;45.292;11.784;2023-05-18T11:15:05;102130.80;;;21.51
69552;BMP280;63774;45.292;11.784;2023-05-18T11:17:31;102131.08;;;21.51
69552;BMP280;63774;45.292;11.784;2023-05-18T11:28:00;102132.08;;;21.50
69552;BMP280;63774;45.292;11.784;2023-05-18T11:30:46;102132.73;;;21.49
69552;BMP280;63774;45.292;11.784;2023-05-18T11:33:27;102127.91;;;21.51
69552;BMP280;63774;45.292;11.784;2023-05-18T11:36:12;102126.39;;;21.52
69552;BMP280;63774;45.292;11.784;2023-05-18T11:39:04;102127.02;;;21.54
69552;BMP280;63774;45.292;11.784;2023-05-18T11:41:36;102127.94;;;21.55
69552;BMP280;63774;45.292;11.784;2023-05-18T11:46:41;102126.30;;;21.54
69552;BMP280;63774;45.292;11.784;2023-05-18T11:49:15;102128.01;;;21.55
69552;BMP280;63774;45.292;11.784;2023-05-18T11:52:20;102123.80;;;21.53
69552;BMP280;63774;45.292;11.784;2023-05-18T11:54:55;102121.47;;;21.53
69552;BMP280;63774;45.292;11.784;2023-05-18T12:00:03;102116.25;;;21.52
69552;BMP280;63774;45.292;11.784;2023-05-18T12:02:32;102116.73;;;21.50
69552;BMP280;63774;45.292;11.784;2023-05-18T12:05:00;102118.53;;;21.51
69552;BMP280;63774;45.292;11.784;2023-05-18T12:07:28;102112.44;;;21.50
69552;BMP280;63774;45.292;11.784;2023-05-18T12:09:57;102112.27;;;21.48
69552;BMP280;63774;45.292;11.784;2023-05-18T12:12:26;102112.14;;;21.48
69552;BMP280;63774;45.292;11.784;2023-05-18T12:15:04;102111.57;;;21.48
69552;BMP280;63774;45.292;11.784;2023-05-18T12:22:42;102111.09;;;21.46
69552;BMP280;63774;45.292;11.784;2023-05-18T12:25:08;102114.78;;;21.46
69552;BMP280;63774;45.292;11.784;2023-05-18T12:27:38;102119.35;;;21.46
69552;BMP280;63774;45.292;11.784;2023-05-18T12:30:08;102113.54;;;21.46
69552;BMP280;63774;45.292;11.784;2023-05-18T12:32:36;102119.44;;;21.46
69552;BMP280;63774;45.292;11.784;2023-05-18T12:35:03;102112.34;;;21.46
69552;BMP280;63774;45.292;11.784;2023-05-18T12:37:30;102110.91;;;21.46
69552;BMP280;63774;45.292;11.784;2023-05-18T12:39:55;102111.02;;;21.46
69552;BMP280;63774;45.292;11.784;2023-05-18T12:42:20;102110.20;;;21.45
69552;BMP280;63774;45.292;11.784;2023-05-18T12:44:47;102114.79;;;21.47
69552;BMP280;63774;45.292;11.784;2023-05-18T12:47:14;102112.27;;;21.47
69552;BMP280;63774;45.292;11.784;2023-05-18T12:49:41;102111.13;;;21.47
69552;BMP280;63774;45.292;11.784;2023-05-18T12:52:11;102110.40;;;21.46
69552;BMP280;63774;45.292;11.784;2023-05-18T12:54:53;102108.60;;;21.46
69552;BMP280;63774;45.292;11.784;2023-05-18T12:57:21;102108.25;;;21.47
69552;BMP280;63774;45.292;11.784;2023-05-18T12:59:50;102112.00;;;21.47
69552;BMP280;63774;45.292;11.784;2023-05-18T13:02:28;102112.64;;;21.48
69552;BMP280;63774;45.292;11.784;2023-05-18T13:05:07;102106.58;;;21.48
69552;BMP280;63774;45.292;11.784;2023-05-18T13:07:40;102107.67;;;21.50
69552;BMP280;63774;45.292;11.784;2023-05-18T13:10:11;102109.13;;;21.48
69552;BMP280;63774;45.292;11.784;2023-05-18T13:12:44;102105.51;;;21.49
69552;BMP280;63774;45.292;11.784;2023-05-18T13:15:18;102106.35;;;21.50
69552;BMP280;63774;45.292;11.784;2023-05-18T13:18:03;102105.79;;;21.50
69552;BMP280;63774;45.292;11.784;2023-05-18T13:20:30;102104.88;;;21.49
69552;BMP280;63774;45.292;11.784;2023-05-18T13:22:58;102100.66;;;21.49
69552;BMP280;63774;45.292;11.784;2023-05-18T13:25:25;102100.25;;;21.52
69552;BMP280;63774;45.292;11.784;2023-05-18T13:27:51;102104.91;;;21.52
69552;BMP280;63774;45.292;11.784;2023-05-18T13:30:20;102102.52;;;21.52
69552;BMP280;63774;45.292;11.784;2023-05-18T13:32:45;102100.13;;;21.52
69552;BMP280;63774;45.292;11.784;2023-05-18T13:35:11;102101.04;;;21.52
69552;BMP280;63774;45.292;11.784;2023-05-18T13:37:38;102100.30;;;21.52
69552;BMP280;63774;45.292;11.784;2023-05-18T13:40:04;102094.14;;;21.52
69552;BMP280;63774;45.292;11.784;2023-05-18T13:42:31;102091.94;;;21.53
69552;BMP280;63774;45.292;11.784;2023-05-18T13:44:56;102088.27;;;21.53
69552;BMP280;63774;45.292;11.784;2023-05-18T13:47:22;102088.64;;;21.54
69552;BMP280;63774;45.292;11.784;2023-05-18T13:49:47;102084.83;;;21.55
69552;BMP280;63774;45.292;11.784;2023-05-18T13:52:13;102078.70;;;21.56
69552;BMP280;63774;45.292;11.784;2023-05-18T13:54:38;102074.55;;;21.55
69552;BMP280;63774;45.292;11.784;2023-05-18T13:57:04;102076.29;;;21.57
69552;BMP280;63774;45.292;11.784;2023-05-18T13:59:30;102074.48;;;21.57
69552;BMP280;63774;45.292;11.784;2023-05-18T14:01:59;102073.16;;;21.57
69552;BMP280;63774;45.292;11.784;2023-05-18T14:04:26;102069.16;;;21.58
69552;BMP280;63774;45.292;11.784;2023-05-18T14:06:51;102068.67;;;21.59
69552;BMP280;63774;45.292;11.784;2023-05-18T14:09:18;102063.79;;;21.59
69552;BMP280;63774;45.292;11.784;2023-05-18T14:11:44;102063.92;;;21.59
69552;BMP280;63774;45.292;11.784;2023-05-18T14:14:09;102059.14;;;21.61
69552;BMP280;63774;45.292;11.784;2023-05-18T14:16:35;102052.66;;;21.61
69552;BMP280;63774;45.292;11.784;2023-05-18T19:58:51;102146.12;;;20.02
69552;BMP280;63774;45.292;11.784;2023-05-18T20:01:17;102152.27;;;20.28